Time;durP1;ratioP1;P1;durP2;ratioP2;P2;SDS_P1;SDS_P2;PMS_P1;PMS_P2;Temp;Humidity;BMP_temperature;BMP_pressure;BME280_temperature;BME280_humidity;BME280_pressure;Samples;Min_cycle;Max_cycle;Signal;HPM_P1;HPM_P2
2020/02/19 00:00:47;;;;;;;4.049999;1.7;;;;;;;3.95;60.07617;95871.95;;;;
2020/02/19 00:01:48;;;;;;;4.7;1.55;;;;;;;3.52;59.9834;95857.05;;;;
2020/02/19 00:02:49;;;;;;;4.7;1.55;;;;;;;3.52;59.9834;95857.05;;;;
2020/02/19 00:03:49;;;;;;;4.7;1.55;;;;;;;3.52;59.9834;95857.05;;;;
2020/02/19 00:04:50;;;;;;;3.2;1.35;;;;;;;3.49;60.3291;95850.75;;;;
2020/02/19 00:05:50;;;;;;;3.2;1.35;;;;;;;3.49;60.3291;95850.75;;;;
2020/02/19 00:06:51;;;;;;;4.450001;1.6;;;;;;;3.54;60.47266;95851.95;;;;
2020/02/19 00:07:51;;;;;;;4.450001;1.6;;;;;;;3.54;60.47266;95851.95;;;;
2020/02/19 00:08:51;;;;;;;4.450001;1.6;;;;;;;3.54;60.47266;95851.95;;;;
2020/02/19 00:09:52;;;;;;;3.6;1.4;;;;;;;3.58;60.57324;95844.33;;;;
2020/02/19 00:10:52;;;;;;;3.6;1.4;;;;;;;3.58;60.57324;95844.33;;;;
2020/02/19 00:11:53;;;;;;;3.6;1.4;;;;;;;3.58;60.57324;95844.33;;;;
2020/02/19 00:12:53;;;;;;;3.6;1.4;;;;;;;3.58;60.57324;95844.33;;;;
2020/02/19 00:13:53;;;;;;;3.6;1.4;;;;;;;3.58;60.57324;95844.33;;;;
2020/02/19 00:14:54;;;;;;;3.6;1.4;;;;;;;3.58;60.57324;95844.33;;;;
2020/02/19 00:15:54;;;;;;;3.6;1.4;;;;;;;3.58;60.57324;95844.33;;;;
2020/02/19 00:16:55;;;;;;;3.6;1.4;;;;;;;3.58;60.57324;95844.33;;;;
2020/02/19 00:17:55;;;;;;;3.6;1.4;;;;;;;3.58;60.57324;95844.33;;;;
2020/02/19 00:18:56;;;;;;;3.6;1.4;;;;;;;3.58;60.57324;95844.33;;;;
2020/02/19 00:19:56;;;;;;;3.6;1.4;;;;;;;3.58;60.57324;95844.33;;;;
2020/02/19 00:20:56;;;;;;;3.699999;1.5;;;;;;;3.32;60.2627;95843.85;;;;
2020/02/19 00:21:57;;;;;;;3.699999;1.5;;;;;;;3.32;60.2627;95843.85;;;;
2020/02/19 00:22:58;;;;;;;2.7;1.3;;;;;;;3.32;60.74805;95841.19;;;;
2020/02/19 00:23:58;;;;;;;2.7;1.3;;;;;;;3.32;60.74805;95841.19;;;;
2020/02/19 00:24:59;;;;;;;2.7;1.3;;;;;;;3.32;60.74805;95841.19;;;;
2020/02/19 00:25:59;;;;;;;3.25;1.35;;;;;;;3.37;60.8291;95837.47;;;;
2020/02/19 00:27:00;;;;;;;3.25;1.35;;;;;;;3.37;60.8291;95837.47;;;;
2020/02/19 00:28:00;;;;;;;3.25;1.35;;;;;;;3.37;60.8291;95837.47;;;;
2020/02/19 00:29:00;;;;;;;3.2;1.65;;;;;;;3.4;61.15137;95835.27;;;;
2020/02/19 00:30:02;;;;;;;3.2;1.65;;;;;;;3.4;61.15137;95835.27;;;;
2020/02/19 00:31:03;;;;;;;3.2;1.65;;;;;;;3.4;61.15137;95835.27;;;;
2020/02/19 00:32:04;;;;;;;3.2;1.65;;;;;;;3.4;61.15137;95835.27;;;;
2020/02/19 00:33:04;;;;;;;3.2;1.65;;;;;;;3.4;61.15137;95835.27;;;;
2020/02/19 00:34:05;;;;;;;3.2;1.65;;;;;;;3.4;61.15137;95835.27;;;;
2020/02/19 00:35:05;;;;;;;3.2;1.65;;;;;;;3.4;61.15137;95835.27;;;;
2020/02/19 00:36:06;;;;;;;3.2;1.65;;;;;;;3.4;61.15137;95835.27;;;;
2020/02/19 00:37:06;;;;;;;3.2;1.65;;;;;;;3.4;61.15137;95835.27;;;;
2020/02/19 00:38:07;;;;;;;3.2;1.65;;;;;;;3.4;61.15137;95835.27;;;;
2020/02/19 00:39:07;;;;;;;3.95;1.4;;;;;;;3.18;60.68652;95825.95;;;;
2020/02/19 00:40:07;;;;;;;3.95;1.4;;;;;;;3.18;60.68652;95825.95;;;;
2020/02/19 00:41:08;;;;;;;3.95;1.4;;;;;;;3.18;60.68652;95825.95;;;;
2020/02/19 00:42:08;;;;;;;3.85;1.7;;;;;;;3.19;61.14258;95822.18;;;;
2020/02/19 00:43:09;;;;;;;3.85;1.7;;;;;;;3.19;61.14258;95822.18;;;;
2020/02/19 00:44:09;;;;;;;3.85;1.7;;;;;;;3.19;61.14258;95822.18;;;;
2020/02/19 00:45:10;;;;;;;3.85;1.7;;;;;;;3.19;61.14258;95822.18;;;;
2020/02/19 00:46:10;;;;;;;3.85;1.7;;;;;;;3.19;61.14258;95822.18;;;;
2020/02/19 00:47:11;;;;;;;3.85;1.7;;;;;;;3.19;61.14258;95822.18;;;;
2020/02/19 00:48:11;;;;;;;3.85;1.7;;;;;;;3.19;61.14258;95822.18;;;;
2020/02/19 00:49:11;;;;;;;3.85;1.7;;;;;;;3.19;61.14258;95822.18;;;;
2020/02/19 00:50:12;;;;;;;3.85;1.7;;;;;;;3.19;61.14258;95822.18;;;;
2020/02/19 00:51:12;;;;;;;3.85;1.7;;;;;;;3.19;61.14258;95822.18;;;;
2020/02/19 00:52:13;;;;;;;3.35;1.5;;;;;;;3.25;60.75;95808.22;;;;
2020/02/19 00:53:13;;;;;;;3.35;1.5;;;;;;;3.25;60.75;95808.22;;;;
2020/02/19 00:54:14;;;;;;;3.35;1.5;;;;;;;3.25;60.75;95808.22;;;;
2020/02/19 00:55:14;;;;;;;3.5;1.75;;;;;;;3.32;61.10742;95805.58;;;;
2020/02/19 00:56:14;;;;;;;3.5;1.75;;;;;;;3.32;61.10742;95805.58;;;;
2020/02/19 00:57:15;;;;;;;3.5;1.75;;;;;;;3.32;61.10742;95805.58;;;;
2020/02/19 00:58:15;;;;;;;3.5;1.75;;;;;;;3.32;61.10742;95805.58;;;;
2020/02/19 00:59:16;;;;;;;3.5;1.75;;;;;;;3.32;61.10742;95805.58;;;;
2020/02/19 01:00:16;;;;;;;3.5;1.75;;;;;;;3.32;61.10742;95805.58;;;;
2020/02/19 01:01:17;;;;;;;3.5;1.75;;;;;;;3.32;61.10742;95805.58;;;;
2020/02/19 01:02:40;;;;;;;3.5;1.75;;;;;;;3.32;61.10742;95805.58;;;;
2020/02/19 01:03:41;;;;;;;3.5;1.75;;;;;;;3.32;61.10742;95805.58;;;;
2020/02/19 01:04:47;;;;;;;3.5;1.75;;;;;;;3.32;61.10742;95805.58;;;;
2020/02/19 01:05:48;;;;;;;2.3;1.4;;;;;;;3.45;60.83984;95796.97;;;;
2020/02/19 01:06:49;;;;;;;2.3;1.4;;;;;;;3.45;60.83984;95796.97;;;;
2020/02/19 01:07:49;;;;;;;2.3;1.4;;;;;;;3.45;60.83984;95796.97;;;;
2020/02/19 01:08:50;;;;;;;1.7;1.35;;;;;;;3.54;61.1084;95792.72;;;;
2020/02/19 01:09:50;;;;;;;1.7;1.35;;;;;;;3.54;61.1084;95792.72;;;;
2020/02/19 01:10:51;;;;;;;2.65;1.3;;;;;;;3.69;61.21289;95790.89;;;;
2020/02/19 01:11:56;;;;;;;2.65;1.3;;;;;;;3.69;61.21289;95790.89;;;;
2020/02/19 01:12:56;;;;;;;2.65;1.3;;;;;;;3.69;61.21289;95790.89;;;;
2020/02/19 01:13:59;;;;;;;4.250001;1.6;;;;;;;3.83;61.16992;95784.74;;;;
2020/02/19 01:15:00;;;;;;;4.250001;1.6;;;;;;;3.83;61.16992;95784.74;;;;
2020/02/19 01:16:00;;;;;;;4.250001;1.6;;;;;;;3.83;61.16992;95784.74;;;;
2020/02/19 01:17:01;;;;;;;4.250001;1.6;;;;;;;3.83;61.16992;95784.74;;;;
2020/02/19 01:18:04;;;;;;;4.250001;1.6;;;;;;;3.83;61.16992;95784.74;;;;
2020/02/19 01:19:04;;;;;;;4.250001;1.6;;;;;;;3.83;61.16992;95784.74;;;;
2020/02/19 01:20:05;;;;;;;4.250001;1.6;;;;;;;3.83;61.16992;95784.74;;;;
2020/02/19 01:21:11;;;;;;;4.250001;1.6;;;;;;;3.83;61.16992;95784.74;;;;
2020/02/19 01:22:12;;;;;;;4.250001;1.6;;;;;;;3.83;61.16992;95784.74;;;;
2020/02/19 01:23:12;;;;;;;4.250001;1.6;;;;;;;3.83;61.16992;95784.74;;;;
2020/02/19 01:24:13;;;;;;;2.2;1.25;;;;;;;3.87;60.61426;95777.19;;;;
2020/02/19 01:25:13;;;;;;;2.2;1.25;;;;;;;3.87;60.61426;95777.19;;;;
2020/02/19 01:26:14;;;;;;;2.2;1.25;;;;;;;3.87;60.61426;95777.19;;;;
2020/02/19 01:27:14;;;;;;;3.35;1.5;;;;;;;3.94;60.91992;95766.13;;;;
2020/02/19 01:28:14;;;;;;;3.35;1.5;;;;;;;3.94;60.91992;95766.13;;;;
2020/02/19 01:29:15;;;;;;;3.35;1.5;;;;;;;3.94;60.91992;95766.13;;;;
2020/02/19 01:30:16;;;;;;;3.35;1.5;;;;;;;3.94;60.91992;95766.13;;;;
2020/02/19 01:31:19;;;;;;;3.35;1.5;;;;;;;3.94;60.91992;95766.13;;;;
2020/02/19 01:32:20;;;;;;;3.35;1.5;;;;;;;3.94;60.91992;95766.13;;;;
2020/02/19 01:33:20;;;;;;;3.35;1.5;;;;;;;3.94;60.91992;95766.13;;;;
2020/02/19 01:34:20;;;;;;;3.35;1.5;;;;;;;3.94;60.91992;95766.13;;;;
2020/02/19 01:35:21;;;;;;;3.35;1.5;;;;;;;3.94;60.91992;95766.13;;;;
2020/02/19 01:36:24;;;;;;;3.35;1.5;;;;;;;3.94;60.91992;95766.13;;;;
2020/02/19 01:37:24;;;;;;;2.5;1.5;;;;;;;4.01;60.39063;95756.36;;;;
2020/02/19 01:38:25;;;;;;;2.5;1.5;;;;;;;4.01;60.39063;95756.36;;;;
2020/02/19 01:39:25;;;;;;;2.5;1.5;;;;;;;4.01;60.39063;95756.36;;;;
2020/02/19 01:40:26;;;;;;;3.05;1.5;;;;;;;4.09;60.61426;95749.99;;;;
2020/02/19 01:41:27;;;;;;;3.05;1.5;;;;;;;4.09;60.61426;95749.99;;;;
2020/02/19 01:42:28;;;;;;;3.05;1.5;;;;;;;4.09;60.61426;95749.99;;;;
2020/02/19 01:43:28;;;;;;;3.05;1.5;;;;;;;4.09;60.61426;95749.99;;;;
2020/02/19 01:44:29;;;;;;;3.05;1.5;;;;;;;4.09;60.61426;95749.99;;;;
2020/02/19 01:45:29;;;;;;;3.05;1.5;;;;;;;4.09;60.61426;95749.99;;;;
2020/02/19 01:46:32;;;;;;;3.05;1.5;;;;;;;4.09;60.61426;95749.99;;;;
2020/02/19 01:47:32;;;;;;;3.05;1.5;;;;;;;4.09;60.61426;95749.99;;;;
2020/02/19 01:48:33;;;;;;;3.05;1.5;;;;;;;4.09;60.61426;95749.99;;;;
2020/02/19 01:49:34;;;;;;;3.05;1.5;;;;;;;4.09;60.61426;95749.99;;;;
2020/02/19 01:50:35;;;;;;;4.7;1.7;;;;;;;4.18;60.31934;95732.01;;;;
2020/02/19 01:51:35;;;;;;;4.7;1.7;;;;;;;4.18;60.31934;95732.01;;;;
2020/02/19 01:52:36;;;;;;;4.7;1.7;;;;;;;4.18;60.31934;95732.01;;;;
2020/02/19 01:53:36;;;;;;;2.45;1.4;;;;;;;4.25;60.55273;95730.25;;;;
2020/02/19 01:54:37;;;;;;;2.45;1.4;;;;;;;4.25;60.55273;95730.25;;;;
2020/02/19 01:55:38;;;;;;;2.45;1.4;;;;;;;4.25;60.55273;95730.25;;;;
2020/02/19 01:56:38;;;;;;;2.45;1.4;;;;;;;4.25;60.55273;95730.25;;;;
2020/02/19 01:57:39;;;;;;;2.45;1.4;;;;;;;4.25;60.55273;95730.25;;;;
2020/02/19 01:58:39;;;;;;;2.45;1.4;;;;;;;4.25;60.55273;95730.25;;;;
2020/02/19 02:04:50;;;;;;;5.15;1.55;;;;;;;4.29;60.13379;95710.16;;;;
2020/02/19 02:05:57;;;;;;;5.15;1.55;;;;;;;4.29;60.13379;95710.16;;;;
2020/02/19 02:07:03;;;;;;;3.55;1.4;;;;;;;4.35;60.32227;95705.42;;;;
2020/02/19 02:08:03;;;;;;;3.55;1.4;;;;;;;4.35;60.32227;95705.42;;;;
2020/02/19 02:09:04;;;;;;;3.55;1.4;;;;;;;4.35;60.32227;95705.42;;;;
2020/02/19 02:10:05;;;;;;;3.55;1.4;;;;;;;4.35;60.32227;95705.42;;;;
2020/02/19 02:11:05;;;;;;;3.55;1.4;;;;;;;4.35;60.32227;95705.42;;;;
2020/02/19 02:12:06;;;;;;;3.55;1.4;;;;;;;4.35;60.32227;95705.42;;;;
2020/02/19 02:13:07;;;;;;;3.55;1.4;;;;;;;4.35;60.32227;95705.42;;;;
2020/02/19 02:14:07;;;;;;;3.55;1.4;;;;;;;4.35;60.32227;95705.42;;;;
2020/02/19 02:15:08;;;;;;;3.55;1.4;;;;;;;4.35;60.32227;95705.42;;;;
2020/02/19 02:16:08;;;;;;;3.55;1.4;;;;;;;4.35;60.32227;95705.42;;;;
2020/02/19 02:17:08;;;;;;;3.400001;1.4;;;;;;;4.39;59.96777;95685.32;;;;
2020/02/19 02:18:10;;;;;;;3.400001;1.4;;;;;;;4.39;59.96777;95685.32;;;;
2020/02/19 02:19:10;;;;;;;3.400001;1.4;;;;;;;4.39;59.96777;95685.32;;;;
2020/02/19 02:20:11;;;;;;;3.75;1.3;;;;;;;4.45;60.08105;95676.11;;;;
2020/02/19 02:21:11;;;;;;;3.75;1.3;;;;;;;4.45;60.08105;95676.11;;;;
2020/02/19 02:22:12;;;;;;;3.75;1.3;;;;;;;4.45;60.08105;95676.11;;;;
2020/02/19 02:23:12;;;;;;;3.75;1.3;;;;;;;4.45;60.08105;95676.11;;;;
2020/02/19 02:24:13;;;;;;;3.75;1.3;;;;;;;4.45;60.08105;95676.11;;;;
2020/02/19 02:25:14;;;;;;;3.75;1.3;;;;;;;4.45;60.08105;95676.11;;;;
2020/02/19 02:26:15;;;;;;;3.75;1.3;;;;;;;4.45;60.08105;95676.11;;;;
2020/02/19 02:27:16;;;;;;;3.75;1.3;;;;;;;4.45;60.08105;95676.11;;;;
2020/02/19 02:28:16;;;;;;;3.75;1.3;;;;;;;4.45;60.08105;95676.11;;;;
2020/02/19 02:29:17;;;;;;;3.75;1.3;;;;;;;4.45;60.08105;95676.11;;;;
2020/02/19 02:30:17;;;;;;;2.45;1.25;;;;;;;4.43;59.75195;95654.5;;;;
2020/02/19 02:31:18;;;;;;;2.45;1.25;;;;;;;4.43;59.75195;95654.5;;;;
2020/02/19 02:32:18;;;;;;;2.45;1.25;;;;;;;4.43;59.75195;95654.5;;;;
2020/02/19 02:33:19;;;;;;;3.400001;1.4;;;;;;;4.48;59.88477;95656.13;;;;
2020/02/19 02:34:19;;;;;;;3.400001;1.4;;;;;;;4.48;59.88477;95656.13;;;;
2020/02/19 02:35:20;;;;;;;3.400001;1.4;;;;;;;4.48;59.88477;95656.13;;;;
2020/02/19 02:36:20;;;;;;;3.400001;1.4;;;;;;;4.48;59.88477;95656.13;;;;
2020/02/19 02:37:21;;;;;;;3.400001;1.4;;;;;;;4.48;59.88477;95656.13;;;;
2020/02/19 02:38:21;;;;;;;3.400001;1.4;;;;;;;4.48;59.88477;95656.13;;;;
2020/02/19 02:39:21;;;;;;;3.400001;1.4;;;;;;;4.48;59.88477;95656.13;;;;
2020/02/19 02:40:22;;;;;;;3.400001;1.4;;;;;;;4.48;59.88477;95656.13;;;;
2020/02/19 02:41:22;;;;;;;3.400001;1.4;;;;;;;4.48;59.88477;95656.13;;;;
2020/02/19 02:42:23;;;;;;;3.400001;1.4;;;;;;;4.48;59.88477;95656.13;;;;
2020/02/19 02:43:23;;;;;;;2.45;1.4;;;;;;;4.39;59.61816;95636.79;;;;
2020/02/19 02:44:24;;;;;;;2.45;1.4;;;;;;;4.39;59.61816;95636.79;;;;
2020/02/19 02:45:24;;;;;;;2.45;1.4;;;;;;;4.39;59.61816;95636.79;;;;
2020/02/19 02:46:25;;;;;;;3.55;1.3;;;;;;;4.41;59.76953;95623.12;;;;
2020/02/19 02:47:25;;;;;;;3.55;1.3;;;;;;;4.41;59.76953;95623.12;;;;
2020/02/19 02:48:26;;;;;;;3.55;1.3;;;;;;;4.41;59.76953;95623.12;;;;
2020/02/19 02:49:26;;;;;;;3.55;1.3;;;;;;;4.41;59.76953;95623.12;;;;
2020/02/19 02:50:27;;;;;;;3.55;1.3;;;;;;;4.41;59.76953;95623.12;;;;
2020/02/19 02:51:27;;;;;;;3.55;1.3;;;;;;;4.41;59.76953;95623.12;;;;
2020/02/19 02:52:28;;;;;;;3.55;1.3;;;;;;;4.41;59.76953;95623.12;;;;
2020/02/19 02:53:28;;;;;;;3.55;1.3;;;;;;;4.41;59.76953;95623.12;;;;
2020/02/19 02:54:30;;;;;;;3.55;1.3;;;;;;;4.41;59.76953;95623.12;;;;
2020/02/19 02:55:30;;;;;;;3.55;1.3;;;;;;;4.41;59.76953;95623.12;;;;
2020/02/19 02:56:31;;;;;;;3.55;1.3;;;;;;;4.41;59.76953;95623.12;;;;
2020/02/19 02:57:31;;;;;;;3.05;1.1;;;;;;;4.34;59.46289;95616.88;;;;
2020/02/19 02:58:32;;;;;;;3.05;1.1;;;;;;;4.34;59.46289;95616.88;;;;
2020/02/19 02:59:33;;;;;;;1.9;1.2;;;;;;;4.39;59.5752;95618.08;;;;
2020/02/19 03:00:33;;;;;;;1.9;1.2;;;;;;;4.39;59.5752;95618.08;;;;
2020/02/19 03:01:34;;;;;;;1.9;1.2;;;;;;;4.39;59.5752;95618.08;;;;
2020/02/19 03:02:34;;;;;;;1.9;1.2;;;;;;;4.39;59.5752;95618.08;;;;
2020/02/19 03:03:35;;;;;;;1.9;1.2;;;;;;;4.39;59.5752;95618.08;;;;
2020/02/19 03:04:35;;;;;;;1.9;1.2;;;;;;;4.39;59.5752;95618.08;;;;
2020/02/19 03:05:36;;;;;;;1.9;1.2;;;;;;;4.39;59.5752;95618.08;;;;
2020/02/19 03:06:36;;;;;;;1.9;1.2;;;;;;;4.39;59.5752;95618.08;;;;
2020/02/19 03:07:36;;;;;;;1.9;1.2;;;;;;;4.39;59.5752;95618.08;;;;
2020/02/19 03:08:37;;;;;;;1.9;1.2;;;;;;;4.39;59.5752;95618.08;;;;
2020/02/19 03:09:37;;;;;;;1.9;1.2;;;;;;;4.39;59.5752;95618.08;;;;
2020/02/19 03:10:38;;;;;;;3.4;1.55;;;;;;;4.36;59.30664;95604.16;;;;
2020/02/19 03:11:39;;;;;;;3.4;1.55;;;;;;;4.36;59.30664;95604.16;;;;
2020/02/19 03:12:39;;;;;;;2.2;1.25;;;;;;;4.4;59.42871;95600.09;;;;
2020/02/19 03:13:39;;;;;;;2.2;1.25;;;;;;;4.4;59.42871;95600.09;;;;
2020/02/19 03:14:40;;;;;;;2.2;1.25;;;;;;;4.4;59.42871;95600.09;;;;
2020/02/19 03:15:40;;;;;;;2.2;1.25;;;;;;;4.4;59.42871;95600.09;;;;
2020/02/19 03:16:42;;;;;;;2.2;1.25;;;;;;;4.4;59.42871;95600.09;;;;
2020/02/19 03:17:42;;;;;;;2.2;1.25;;;;;;;4.4;59.42871;95600.09;;;;
2020/02/19 03:18:43;;;;;;;2.2;1.25;;;;;;;4.4;59.42871;95600.09;;;;
2020/02/19 03:19:43;;;;;;;2.2;1.25;;;;;;;4.4;59.42871;95600.09;;;;
2020/02/19 03:20:44;;;;;;;2.2;1.25;;;;;;;4.4;59.42871;95600.09;;;;
2020/02/19 03:21:44;;;;;;;2.2;1.25;;;;;;;4.4;59.42871;95600.09;;;;
2020/02/19 03:22:44;;;;;;;2.2;1.25;;;;;;;4.4;59.42871;95600.09;;;;
2020/02/19 03:23:45;;;;;;;3;1.4;;;;;;;4.35;59.24219;95582.89;;;;
2020/02/19 03:24:46;;;;;;;3;1.4;;;;;;;4.35;59.24219;95582.89;;;;
2020/02/19 03:25:46;;;;;;;3;1.4;;;;;;;4.35;59.24219;95582.89;;;;
2020/02/19 03:26:47;;;;;;;2;1.2;;;;;;;4.39;59.44824;95580.55;;;;
2020/02/19 03:27:49;;;;;;;2;1.2;;;;;;;4.39;59.44824;95580.55;;;;
2020/02/19 03:28:51;;;;;;;2;1.2;;;;;;;4.39;59.44824;95580.55;;;;
2020/02/19 03:29:52;;;;;;;2;1.2;;;;;;;4.39;59.44824;95580.55;;;;
2020/02/19 03:32:07;;;;;;;2;1.2;;;;;;;4.39;59.44824;95580.55;;;;
2020/02/19 03:33:30;;;;;;;2;1.2;;;;;;;4.39;59.44824;95580.55;;;;
2020/02/19 03:34:33;;;;;;;2;1.2;;;;;;;4.39;59.44824;95580.55;;;;
2020/02/19 03:35:34;;;;;;;2;1.2;;;;;;;4.39;59.44824;95580.55;;;;
2020/02/19 03:36:35;;;;;;;2.5;1.2;;;;;;;4.36;59.25488;95569.83;;;;
2020/02/19 03:37:35;;;;;;;2.5;1.2;;;;;;;4.36;59.25488;95569.83;;;;
2020/02/19 03:38:36;;;;;;;2.5;1.2;;;;;;;4.36;59.25488;95569.83;;;;
2020/02/19 03:39:36;;;;;;;2.35;1.3;;;;;;;4.4;59.4082;95567.52;;;;
2020/02/19 03:40:37;;;;;;;2.35;1.3;;;;;;;4.4;59.4082;95567.52;;;;
2020/02/19 03:41:37;;;;;;;2.35;1.3;;;;;;;4.4;59.4082;95567.52;;;;
2020/02/19 03:42:38;;;;;;;2.35;1.3;;;;;;;4.4;59.4082;95567.52;;;;
2020/02/19 03:43:38;;;;;;;2.35;1.3;;;;;;;4.4;59.4082;95567.52;;;;
2020/02/19 03:44:38;;;;;;;2.35;1.3;;;;;;;4.4;59.4082;95567.52;;;;
2020/02/19 03:45:39;;;;;;;2.35;1.3;;;;;;;4.4;59.4082;95567.52;;;;
2020/02/19 03:46:40;;;;;;;2.35;1.3;;;;;;;4.4;59.4082;95567.52;;;;
2020/02/19 03:47:40;;;;;;;2.35;1.3;;;;;;;4.4;59.4082;95567.52;;;;
2020/02/19 03:48:40;;;;;;;2.35;1.3;;;;;;;4.4;59.4082;95567.52;;;;
2020/02/19 03:49:41;;;;;;;2.3;1.2;;;;;;;4.34;59.16602;95552.73;;;;
2020/02/19 03:50:41;;;;;;;2.3;1.2;;;;;;;4.34;59.16602;95552.73;;;;
2020/02/19 03:51:43;;;;;;;2.3;1.2;;;;;;;4.34;59.16602;95552.73;;;;
2020/02/19 03:52:43;;;;;;;4.15;1.7;;;;;;;4.37;59.38184;95548.36;;;;
2020/02/19 03:53:44;;;;;;;4.15;1.7;;;;;;;4.37;59.38184;95548.36;;;;
2020/02/19 03:54:45;;;;;;;4.15;1.7;;;;;;;4.37;59.38184;95548.36;;;;
2020/02/19 03:55:45;;;;;;;4.15;1.7;;;;;;;4.37;59.38184;95548.36;;;;
2020/02/19 03:56:46;;;;;;;4.15;1.7;;;;;;;4.37;59.38184;95548.36;;;;
2020/02/19 03:57:46;;;;;;;4.15;1.7;;;;;;;4.37;59.38184;95548.36;;;;
2020/02/19 03:58:47;;;;;;;4.15;1.7;;;;;;;4.37;59.38184;95548.36;;;;
2020/02/19 03:59:47;;;;;;;4.15;1.7;;;;;;;4.37;59.38184;95548.36;;;;
2020/02/19 04:00:48;;;;;;;4.15;1.7;;;;;;;4.37;59.38184;95548.36;;;;
2020/02/19 04:01:49;;;;;;;4.15;1.7;;;;;;;4.37;59.38184;95548.36;;;;
2020/02/19 04:02:50;;;;;;;4.15;1.7;;;;;;;4.37;59.38184;95548.36;;;;
2020/02/19 04:03:51;;;;;;;1.55;1.1;;;;;;;4.3;59.08691;95536.78;;;;
2020/02/19 04:04:51;;;;;;;1.55;1.1;;;;;;;4.3;59.08691;95536.78;;;;
2020/02/19 04:05:52;;;;;;;1.65;1.2;;;;;;;4.36;59.20215;95538.17;;;;
2020/02/19 04:06:53;;;;;;;1.65;1.2;;;;;;;4.36;59.20215;95538.17;;;;
2020/02/19 04:07:53;;;;;;;1.65;1.2;;;;;;;4.36;59.20215;95538.17;;;;
2020/02/19 04:08:54;;;;;;;1.65;1.2;;;;;;;4.36;59.20215;95538.17;;;;
2020/02/19 04:09:54;;;;;;;1.65;1.2;;;;;;;4.36;59.20215;95538.17;;;;
2020/02/19 04:10:55;;;;;;;1.65;1.2;;;;;;;4.36;59.20215;95538.17;;;;
2020/02/19 04:11:55;;;;;;;1.65;1.2;;;;;;;4.36;59.20215;95538.17;;;;
2020/02/19 04:12:56;;;;;;;1.65;1.2;;;;;;;4.36;59.20215;95538.17;;;;
2020/02/19 04:13:56;;;;;;;1.65;1.2;;;;;;;4.36;59.20215;95538.17;;;;
2020/02/19 04:14:57;;;;;;;1.65;1.2;;;;;;;4.36;59.20215;95538.17;;;;
2020/02/19 04:15:57;;;;;;;1.65;1.2;;;;;;;4.36;59.20215;95538.17;;;;
2020/02/19 04:16:59;;;;;;;2.8;1.35;;;;;;;4.42;58.92383;95531.65;;;;
2020/02/19 04:18:00;;;;;;;2.8;1.35;;;;;;;4.42;58.92383;95531.65;;;;
2020/02/19 04:19:00;;;;;;;2.8;1.35;;;;;;;4.42;58.92383;95531.65;;;;
2020/02/19 04:20:01;;;;;;;2.8;1.35;;;;;;;4.42;58.92383;95531.65;;;;
2020/02/19 04:21:02;;;;;;;2.8;1.35;;;;;;;4.42;58.92383;95531.65;;;;
2020/02/19 04:22:04;;;;;;;2.8;1.35;;;;;;;4.42;58.92383;95531.65;;;;
2020/02/19 04:23:04;;;;;;;2.8;1.35;;;;;;;4.42;58.92383;95531.65;;;;
2020/02/19 04:24:06;;;;;;;2.8;1.35;;;;;;;4.42;58.92383;95531.65;;;;
2020/02/19 04:25:07;;;;;;;2.8;1.35;;;;;;;4.42;58.92383;95531.65;;;;
2020/02/19 04:26:07;;;;;;;2.8;1.35;;;;;;;4.42;58.92383;95531.65;;;;
2020/02/19 04:27:08;;;;;;;1.95;1.1;;;;;;;4.59;58.66113;95507.19;;;;
2020/02/19 04:28:08;;;;;;;1.95;1.1;;;;;;;4.59;58.66113;95507.19;;;;
2020/02/19 04:29:09;;;;;;;1.95;1.1;;;;;;;4.59;58.66113;95507.19;;;;
2020/02/19 04:30:12;;;;;;;1.95;1.1;;;;;;;4.59;58.66113;95507.19;;;;
2020/02/19 04:31:14;;;;;;;1.95;1.1;;;;;;;4.59;58.66113;95507.19;;;;
2020/02/19 04:32:21;;;;;;;1.95;1.1;;;;;;;4.59;58.66113;95507.19;;;;
2020/02/19 04:33:27;;;;;;;1.95;1.1;;;;;;;4.59;58.66113;95507.19;;;;
2020/02/19 04:34:28;;;;;;;1.95;1.1;;;;;;;4.59;58.66113;95507.19;;;;
2020/02/19 04:35:29;;;;;;;1.95;1.1;;;;;;;4.59;58.66113;95507.19;;;;
2020/02/19 04:36:30;;;;;;;1.95;1.1;;;;;;;4.59;58.66113;95507.19;;;;
2020/02/19 04:37:31;;;;;;;3.3;1.3;;;;;;;4.63;58.40039;95496.85;;;;
2020/02/19 04:38:33;;;;;;;3.3;1.3;;;;;;;4.63;58.40039;95496.85;;;;
2020/02/19 04:39:34;;;;;;;3.3;1.3;;;;;;;4.63;58.40039;95496.85;;;;
2020/02/19 04:40:34;;;;;;;3.3;1.3;;;;;;;4.63;58.40039;95496.85;;;;
2020/02/19 04:41:35;;;;;;;3.3;1.3;;;;;;;4.63;58.40039;95496.85;;;;
2020/02/19 04:42:36;;;;;;;3.3;1.3;;;;;;;4.63;58.40039;95496.85;;;;
2020/02/19 04:43:36;;;;;;;3.3;1.3;;;;;;;4.63;58.40039;95496.85;;;;
2020/02/19 04:44:37;;;;;;;3.3;1.3;;;;;;;4.63;58.40039;95496.85;;;;
2020/02/19 04:45:37;;;;;;;3.3;1.3;;;;;;;4.63;58.40039;95496.85;;;;
2020/02/19 04:46:38;;;;;;;3.3;1.3;;;;;;;4.63;58.40039;95496.85;;;;
2020/02/19 04:47:38;;;;;;;3.3;1.3;;;;;;;4.63;58.40039;95496.85;;;;
2020/02/19 04:48:39;;;;;;;2.2;1.2;;;;;;;4.66;58.22461;95504.06;;;;
2020/02/19 04:49:39;;;;;;;2.2;1.2;;;;;;;4.66;58.22461;95504.06;;;;
2020/02/19 04:50:40;;;;;;;2.2;1.2;;;;;;;4.66;58.22461;95504.06;;;;
2020/02/19 04:51:40;;;;;;;2.2;1.2;;;;;;;4.66;58.22461;95504.06;;;;
2020/02/19 04:52:41;;;;;;;2.2;1.2;;;;;;;4.66;58.22461;95504.06;;;;
2020/02/19 04:53:42;;;;;;;2.2;1.2;;;;;;;4.66;58.22461;95504.06;;;;
2020/02/19 04:54:43;;;;;;;2.2;1.2;;;;;;;4.66;58.22461;95504.06;;;;
2020/02/19 04:55:44;;;;;;;2.2;1.2;;;;;;;4.66;58.22461;95504.06;;;;
2020/02/19 04:56:44;;;;;;;2.2;1.2;;;;;;;4.66;58.22461;95504.06;;;;
2020/02/19 04:57:44;;;;;;;2.2;1.2;;;;;;;4.66;58.22461;95504.06;;;;
2020/02/19 04:58:45;;;;;;;1.1;1;;;;;;;4.53;58.12207;95494.62;;;;
2020/02/19 04:59:46;;;;;;;1.1;1;;;;;;;4.53;58.12207;95494.62;;;;
2020/02/19 05:00:46;;;;;;;1.1;1;;;;;;;4.53;58.12207;95494.62;;;;
2020/02/19 05:01:53;;;;;;;1.9;1.2;;;;;;;4.57;58.17969;95489.18;;;;
2020/02/19 05:04:06;;;;;;;1.9;1.2;;;;;;;4.57;58.17969;95489.18;;;;
2020/02/19 05:06:04;;;;;;;1.9;1.2;;;;;;;4.57;58.17969;95489.18;;;;
2020/02/19 05:07:08;;;;;;;1.9;1.2;;;;;;;4.57;58.17969;95489.18;;;;
2020/02/19 05:08:10;;;;;;;1.9;1.2;;;;;;;4.57;58.17969;95489.18;;;;
2020/02/19 05:09:11;;;;;;;1.9;1.2;;;;;;;4.57;58.17969;95489.18;;;;
2020/02/19 05:10:12;;;;;;;1.9;1.2;;;;;;;4.57;58.17969;95489.18;;;;
2020/02/19 05:11:12;;;;;;;1.9;1.2;;;;;;;4.57;58.17969;95489.18;;;;
2020/02/19 05:12:14;;;;;;;2.2;1.05;;;;;;;4.49;57.97754;95474.22;;;;
2020/02/19 05:13:14;;;;;;;2.2;1.05;;;;;;;4.49;57.97754;95474.22;;;;
2020/02/19 05:14:15;;;;;;;2.2;1.05;;;;;;;4.49;57.97754;95474.22;;;;
2020/02/19 05:15:16;;;;;;;2.2;1.05;;;;;;;4.49;57.97754;95474.22;;;;
2020/02/19 05:16:16;;;;;;;2.2;1.05;;;;;;;4.49;57.97754;95474.22;;;;
2020/02/19 05:17:17;;;;;;;2.2;1.05;;;;;;;4.49;57.97754;95474.22;;;;
2020/02/19 05:18:18;;;;;;;2.2;1.05;;;;;;;4.49;57.97754;95474.22;;;;
2020/02/19 05:19:18;;;;;;;2.2;1.05;;;;;;;4.49;57.97754;95474.22;;;;
2020/02/19 05:20:19;;;;;;;2.2;1.05;;;;;;;4.49;57.97754;95474.22;;;;
2020/02/19 05:21:20;;;;;;;2.2;1.05;;;;;;;4.49;57.97754;95474.22;;;;
2020/02/19 05:22:20;;;;;;;2.2;1.05;;;;;;;4.49;57.97754;95474.22;;;;
2020/02/19 05:23:20;;;;;;;1.9;1.05;;;;;;;4.44;57.95117;95455.15;;;;
2020/02/19 05:24:21;;;;;;;1.9;1.05;;;;;;;4.44;57.95117;95455.15;;;;
2020/02/19 05:25:21;;;;;;;1.9;1.05;;;;;;;4.44;57.95117;95455.15;;;;
2020/02/19 05:26:22;;;;;;;1.9;1.05;;;;;;;4.44;57.95117;95455.15;;;;
2020/02/19 05:27:23;;;;;;;1.9;1.05;;;;;;;4.44;57.95117;95455.15;;;;
2020/02/19 05:28:24;;;;;;;1.9;1.05;;;;;;;4.44;57.95117;95455.15;;;;
2020/02/19 05:29:24;;;;;;;1.9;1.05;;;;;;;4.44;57.95117;95455.15;;;;
2020/02/19 05:30:25;;;;;;;1.9;1.05;;;;;;;4.44;57.95117;95455.15;;;;
2020/02/19 05:31:25;;;;;;;1.9;1.05;;;;;;;4.44;57.95117;95455.15;;;;
2020/02/19 05:32:26;;;;;;;1.9;1.05;;;;;;;4.44;57.95117;95455.15;;;;
2020/02/19 05:33:26;;;;;;;2.3;1.2;;;;;;;4.37;57.89844;95449.05;;;;
2020/02/19 05:34:27;;;;;;;2.3;1.2;;;;;;;4.37;57.89844;95449.05;;;;
2020/02/19 05:35:28;;;;;;;2.3;1.2;;;;;;;4.37;57.89844;95449.05;;;;
2020/02/19 05:36:29;;;;;;;1.5;1.1;;;;;;;4.41;57.94629;95440.96;;;;
2020/02/19 05:37:30;;;;;;;1.5;1.1;;;;;;;4.41;57.94629;95440.96;;;;
2020/02/19 05:38:31;;;;;;;1.5;1.1;;;;;;;4.41;57.94629;95440.96;;;;
2020/02/19 05:39:31;;;;;;;1.5;1.1;;;;;;;4.41;57.94629;95440.96;;;;
2020/02/19 05:40:32;;;;;;;1.5;1.1;;;;;;;4.41;57.94629;95440.96;;;;
2020/02/19 05:41:33;;;;;;;1.5;1.1;;;;;;;4.41;57.94629;95440.96;;;;
2020/02/19 05:42:34;;;;;;;1.5;1.1;;;;;;;4.41;57.94629;95440.96;;;;
2020/02/19 05:43:35;;;;;;;1.5;1.1;;;;;;;4.41;57.94629;95440.96;;;;
2020/02/19 05:44:36;;;;;;;1.5;1.1;;;;;;;4.41;57.94629;95440.96;;;;
2020/02/19 05:45:36;;;;;;;1.5;1.1;;;;;;;4.41;57.94629;95440.96;;;;
2020/02/19 05:46:37;;;;;;;1.65;1.05;;;;;;;4.49;57.65039;95433.2;;;;
2020/02/19 05:47:38;;;;;;;1.65;1.05;;;;;;;4.49;57.65039;95433.2;;;;
2020/02/19 05:48:40;;;;;;;1.65;1.05;;;;;;;4.49;57.65039;95433.2;;;;
2020/02/19 05:49:41;;;;;;;1.65;1.05;;;;;;;4.49;57.65039;95433.2;;;;
2020/02/19 05:50:42;;;;;;;1.65;1.05;;;;;;;4.49;57.65039;95433.2;;;;
2020/02/19 05:51:42;;;;;;;1.65;1.05;;;;;;;4.49;57.65039;95433.2;;;;
2020/02/19 05:52:43;;;;;;;1.65;1.05;;;;;;;4.49;57.65039;95433.2;;;;
2020/02/19 05:53:43;;;;;;;1.65;1.05;;;;;;;4.49;57.65039;95433.2;;;;
2020/02/19 05:54:44;;;;;;;1.65;1.05;;;;;;;4.49;57.65039;95433.2;;;;
2020/02/19 05:55:44;;;;;;;1.65;1.05;;;;;;;4.49;57.65039;95433.2;;;;
2020/02/19 05:56:45;;;;;;;1.65;1.05;;;;;;;4.49;57.65039;95433.2;;;;
2020/02/19 05:57:48;;;;;;;2.45;1.15;;;;;;;4.7;57.35059;95429.96;;;;
2020/02/19 05:58:49;;;;;;;2.45;1.15;;;;;;;4.7;57.35059;95429.96;;;;
2020/02/19 05:59:50;;;;;;;2.45;1.15;;;;;;;4.7;57.35059;95429.96;;;;
2020/02/19 06:01:05;;;;;;;2.45;1.15;;;;;;;4.7;57.35059;95429.96;;;;
2020/02/19 06:07:24;;;;;;;2.45;1.15;;;;;;;4.7;57.35059;95429.96;;;;
2020/02/19 06:08:25;;;;;;;3.1;1.2;;;;;;;4.91;56.93262;95437.05;;;;
2020/02/19 06:09:26;;;;;;;3.1;1.2;;;;;;;4.91;56.93262;95437.05;;;;
2020/02/19 06:10:26;;;;;;;3.1;1.2;;;;;;;4.91;56.93262;95437.05;;;;